TSC137 MDPP-CYUL
Flight info
| Callsign | TSC137 |
|---|---|
| Flight time | N/A |
| Altitude | 41000 |
| Route | LERED3C LERED L464 CERDA/N0467F400 L453 LAMER/M082F400 L453 SAUCR/M082F390 Y485 CHUBY/M082F400 Y485 HOBOH/M082F390 Y485 SILLY/N0464F390 Y485 YAALE Y484 MOUGH DCT GON/N0463F400 DCT PBERG CARTR5 |
| Aircraft | A332/H-SDE3GHIJ2J3J5M1RVWXY/LB2D1 |
Departure
| Time | 2026-04-21 00:32 |
|---|---|
| Airport | Gregorio Luperon International Airport (MDPP) |
Arrival
| Time | N/A |
|---|---|
| Airport | Montreal / Pierre Elliott Trudeau International Airport (CYUL) |
| Time | Latitude | Longitude | Altitude | Speed | Heading |
|---|---|---|---|---|---|
| 2026-04-21 00:13 | 19.75501 | -70.56534 | 45 ft | 0 kts | 38° |
| 2026-04-21 00:14 | 19.75498 | -70.56536 | 45 ft | 3 kts | 29° |
| 2026-04-21 00:14 | 19.75492 | -70.56541 | 43 ft | 4 kts | 40° |
| 2026-04-21 00:15 | 19.75470 | -70.56556 | 45 ft | 5 kts | 11° |
| 2026-04-21 00:15 | 19.75448 | -70.56554 | 45 ft | 5 kts | 313° |
| 2026-04-21 00:15 | 19.75441 | -70.56538 | 44 ft | 3 kts | 263° |
| 2026-04-21 00:16 | 19.75501 | -70.56534 | 45 ft | 0 kts | 38° |
| 2026-04-21 00:19 | 19.75599 | -70.56495 | 43 ft | 0 kts | 163° |
| 2026-04-21 00:24 | 19.75598 | -70.56495 | 43 ft | 0 kts | 166° |
| 2026-04-21 00:24 | 19.75597 | -70.56496 | 44 ft | 0 kts | 176° |
| 2026-04-21 00:25 | 19.75595 | -70.56497 | 44 ft | 0 kts | 190° |
| 2026-04-21 00:25 | 19.75592 | -70.56501 | 44 ft | 1 kts | 216° |
| 2026-04-21 00:25 | 19.75592 | -70.56507 | 44 ft | 1 kts | 255° |
| 2026-04-21 00:25 | 19.75602 | -70.56542 | 41 ft | 11 kts | 288° |
| 2026-04-21 00:26 | 19.75615 | -70.56582 | 37 ft | 3 kts | 289° |
| 2026-04-21 00:26 | 19.75624 | -70.56629 | 36 ft | 9 kts | 275° |
| 2026-04-21 00:26 | 19.75616 | -70.56703 | 35 ft | 11 kts | 259° |
| 2026-04-21 00:26 | 19.75596 | -70.56790 | 34 ft | 13 kts | 254° |
| 2026-04-21 00:27 | 19.75568 | -70.56893 | 31 ft | 16 kts | 252° |
| 2026-04-21 00:27 | 19.75541 | -70.57022 | 27 ft | 19 kts | 276° |
| 2026-04-21 00:27 | 19.75617 | -70.57143 | 29 ft | 20 kts | 311° |
| 2026-04-21 00:27 | 19.75697 | -70.57265 | 29 ft | 21 kts | 282° |
| 2026-04-21 00:28 | 19.75668 | -70.57413 | 27 ft | 21 kts | 253° |
| 2026-04-21 00:28 | 19.75625 | -70.57567 | 24 ft | 22 kts | 253° |
| 2026-04-21 00:28 | 19.75580 | -70.57723 | 28 ft | 21 kts | 254° |
| 2026-04-21 00:28 | 19.75538 | -70.57868 | 31 ft | 21 kts | 252° |
| 2026-04-21 00:29 | 19.75496 | -70.58018 | 32 ft | 22 kts | 252° |
| 2026-04-21 00:29 | 19.75450 | -70.58169 | 33 ft | 22 kts | 251° |
| 2026-04-21 00:29 | 19.75397 | -70.58309 | 31 ft | 14 kts | 238° |
| 2026-04-21 00:29 | 19.75373 | -70.58360 | 31 ft | 2 kts | 278° |
| 2026-04-21 00:30 | 19.75377 | -70.58363 | 30 ft | 0 kts | 309° |
| 2026-04-21 00:30 | 19.75383 | -70.58363 | 31 ft | 1 kts | 348° |
| 2026-04-21 00:30 | 19.75393 | -70.58354 | 31 ft | 4 kts | 40° |
| 2026-04-21 00:30 | 19.75405 | -70.58325 | 31 ft | 2 kts | 74° |
| 2026-04-21 00:31 | 19.75429 | -70.58241 | 32 ft | 33 kts | 73° |
| 2026-04-21 00:31 | 19.75566 | -70.57766 | 30 ft | 99 kts | 72° |
| 2026-04-21 00:31 | 19.75828 | -70.56859 | 30 ft | 154 kts | 73° |
| 2026-04-21 00:31 | 19.76136 | -70.55687 | 496 ft | 170 kts | 77° |
| 2026-04-21 00:32 | 19.76400 | -70.54445 | 1178 ft | 176 kts | 80° |
| 2026-04-21 00:32 | 19.76703 | -70.53192 | 2051 ft | 176 kts | 73° |
| 2026-04-21 00:32 | 19.77163 | -70.51933 | 2629 ft | 190 kts | 65° |
| 2026-04-21 00:32 | 19.78058 | -70.50797 | 3090 ft | 217 kts | 38° |
| 2026-04-21 00:33 | 19.79607 | -70.50342 | 3380 ft | 251 kts | 360° |
| 2026-04-21 00:33 | 19.81384 | -70.50540 | 3957 ft | 259 kts | 0° |
| 2026-04-21 00:33 | 19.83157 | -70.50213 | 4476 ft | 267 kts | 17° |
| 2026-04-21 00:33 | 19.84987 | -70.49675 | 5146 ft | 276 kts | 18° |
| 2026-04-21 00:34 | 19.86839 | -70.49077 | 5719 ft | 279 kts | 18° |
| 2026-04-21 00:34 | 19.88706 | -70.48473 | 5964 ft | 280 kts | 17° |
| 2026-04-21 00:34 | 19.90625 | -70.48068 | 6263 ft | 284 kts | 7° |
| 2026-04-21 00:34 | 19.92605 | -70.47867 | 6985 ft | 287 kts | 5° |
| 2026-04-21 00:35 | 19.94584 | -70.47716 | 7885 ft | 289 kts | 4° |
| 2026-04-21 00:35 | 19.96598 | -70.47582 | 8759 ft | 292 kts | 4° |
| 2026-04-21 00:35 | 19.98635 | -70.47456 | 9583 ft | 294 kts | 3° |
| 2026-04-21 00:35 | 20.00703 | -70.47333 | 10343 ft | 301 kts | 3° |
| 2026-04-21 00:36 | 20.02867 | -70.47208 | 10701 ft | 322 kts | 3° |
| 2026-04-21 00:36 | 20.05179 | -70.47076 | 11003 ft | 342 kts | 3° |